createdAt,value
2018-12-06T00:03:09.179Z,3.80
2018-12-06T00:08:17.200Z,2.20
2018-12-06T00:13:20.616Z,2.75
2018-12-06T00:18:24.081Z,4.50
2018-12-06T00:23:27.403Z,4.00
2018-12-06T00:28:30.800Z,2.40
2018-12-06T00:33:34.172Z,3.60
2018-12-06T00:38:37.629Z,3.75
2018-12-06T00:43:41.093Z,3.75
2018-12-06T00:48:44.572Z,3.25
2018-12-06T00:53:48.073Z,3.75
2018-12-06T00:58:51.492Z,4.00
2018-12-06T01:03:54.945Z,2.80
2018-12-06T01:08:58.381Z,2.00
2018-12-06T01:14:01.826Z,4.25
2018-12-06T01:19:08.296Z,2.75
2018-12-06T01:24:11.688Z,3.00
2018-12-06T01:29:15.081Z,2.20
2018-12-06T01:34:18.544Z,3.25
2018-12-06T01:39:21.996Z,3.40
2018-12-06T01:44:25.539Z,3.25
2018-12-06T01:49:29.137Z,2.60
2018-12-06T01:54:32.672Z,2.00
2018-12-06T01:59:36.101Z,1.75
2018-12-06T02:04:39.467Z,3.00
2018-12-06T02:09:42.900Z,2.00
2018-12-06T02:14:46.303Z,3.00
2018-12-06T02:19:49.693Z,3.00
2018-12-06T02:24:53.125Z,1.40
2018-12-06T02:29:56.457Z,3.00
2018-12-06T02:34:59.933Z,4.00
2018-12-06T02:40:03.844Z,2.75
2018-12-06T02:45:07.410Z,3.40
2018-12-06T02:50:10.840Z,3.17
2018-12-06T02:55:14.386Z,2.20
2018-12-06T03:00:17.827Z,3.20
2018-12-06T03:05:21.192Z,3.40
2018-12-06T03:10:24.566Z,2.00
2018-12-06T03:15:28.037Z,3.00
2018-12-06T03:20:31.623Z,2.25
2018-12-06T03:25:35.011Z,1.00
2018-12-06T03:30:38.487Z,4.20
2018-12-06T03:35:41.902Z,2.00
2018-12-06T03:40:45.346Z,3.00
2018-12-06T03:45:48.779Z,2.60
2018-12-06T03:50:52.155Z,2.00
2018-12-06T03:55:55.492Z,1.00
2018-12-06T04:00:58.861Z,2.60
2018-12-06T04:06:02.349Z,1.00
2018-12-06T04:11:05.724Z,1.80
2018-12-06T04:16:09.089Z,2.50
2018-12-06T04:21:12.466Z,2.00
2018-12-06T04:26:15.917Z,2.80
2018-12-06T04:31:19.336Z,2.00
2018-12-06T04:36:22.686Z,2.00
2018-12-06T04:41:26.117Z,2.60
2018-12-06T04:46:29.598Z,2.40
2018-12-06T04:51:33.074Z,3.00
2018-12-06T04:56:36.553Z,1.00
2018-12-06T05:01:40.041Z,1.60
2018-12-06T05:06:43.503Z,2.80
2018-12-06T05:11:47.923Z,3.60
2018-12-06T05:16:51.423Z,2.75
2018-12-06T05:21:54.828Z,2.75
2018-12-06T05:26:58.216Z,1.80
2018-12-06T05:32:01.852Z,2.80
2018-12-06T05:37:05.357Z,2.00
2018-12-06T05:42:08.864Z,3.00
2018-12-06T05:47:12.355Z,2.75
2018-12-06T05:52:15.803Z,1.40
2018-12-06T05:57:19.258Z,1.80
2018-12-06T06:02:29.034Z,1.80
2018-12-06T06:07:32.419Z,2.00
2018-12-06T06:12:35.935Z,2.00
2018-12-06T06:17:39.389Z,2.50
2018-12-06T06:22:42.766Z,4.00
2018-12-06T06:27:46.162Z,1.00
2018-12-06T06:32:49.566Z,1.00
2018-12-06T06:37:52.939Z,1.80
2018-12-06T06:42:56.328Z,2.50
2018-12-06T06:47:59.861Z,3.00
2018-12-06T06:53:03.220Z,2.75
2018-12-06T06:58:06.622Z,4.00
2018-12-06T07:03:16.806Z,4.20
2018-12-06T07:08:20.290Z,3.00
2018-12-06T07:13:23.704Z,3.00
2018-12-06T07:18:27.089Z,1.50
2018-12-06T07:23:30.521Z,2.00
2018-12-06T07:28:33.946Z,1.80
2018-12-06T07:33:37.540Z,1.00
2018-12-06T07:38:40.976Z,3.00
2018-12-06T07:43:44.304Z,6.25
2018-12-06T07:48:47.663Z,7.40
2018-12-06T07:53:51.146Z,8.60
2018-12-06T07:58:54.535Z,7.00
2018-12-06T08:03:58.034Z,7.60
2018-12-06T08:09:01.423Z,8.00
2018-12-06T08:14:04.947Z,8.75
2018-12-06T08:19:08.302Z,9.75
2018-12-06T08:24:11.667Z,8.00
2018-12-06T08:29:15.003Z,9.20
2018-12-06T08:34:18.323Z,9.75
2018-12-06T08:44:31.246Z,5.00
2018-12-06T08:49:34.623Z,7.25
2018-12-06T08:54:37.942Z,7.40
2018-12-06T08:59:41.371Z,6.00
2018-12-06T09:04:44.717Z,5.20
2018-12-06T09:09:48.188Z,3.80
2018-12-06T09:14:51.551Z,5.40
2018-12-06T09:19:54.971Z,6.50
2018-12-06T09:24:58.377Z,5.00
2018-12-06T09:30:01.847Z,3.50
2018-12-06T09:35:06.114Z,5.00
2018-12-06T09:40:10.361Z,5.60
2018-12-06T09:45:14.109Z,4.40
2018-12-06T09:50:17.532Z,6.25
2018-12-06T09:55:20.897Z,3.25
2018-12-06T10:00:24.367Z,4.60
2018-12-06T10:05:27.690Z,4.40
2018-12-06T10:10:31.140Z,4.80
2018-12-06T10:15:34.585Z,4.50
2018-12-06T10:20:37.971Z,3.60
2018-12-06T10:25:41.415Z,4.75
2018-12-06T10:30:44.766Z,4.20
2018-12-06T10:35:48.214Z,3.20
2018-12-06T10:40:51.603Z,4.40
2018-12-06T10:45:55.014Z,1.00
2018-12-06T10:51:09.748Z,4.50
2018-12-06T10:56:13.131Z,5.75
2018-12-06T11:01:18.915Z,4.20
2018-12-06T11:06:22.430Z,4.75
2018-12-06T11:11:26.574Z,3.25
2018-12-06T11:16:30.082Z,5.00
2018-12-06T11:21:33.484Z,5.00
2018-12-06T11:26:37.120Z,4.00
2018-12-06T11:31:40.571Z,3.00
2018-12-06T11:36:44.071Z,4.60
2018-12-06T11:41:47.454Z,4.00
2018-12-06T11:46:50.897Z,2.80
2018-12-06T11:51:54.355Z,3.25
2018-12-06T11:56:57.788Z,1.00
2018-12-06T12:02:01.338Z,5.00
2018-12-06T12:07:04.826Z,3.80
2018-12-06T12:12:08.206Z,3.25
2018-12-06T12:17:11.651Z,3.00
2018-12-06T12:22:15.054Z,2.40
2018-12-06T12:27:18.545Z,2.00
2018-12-06T12:32:22.107Z,3.40
2018-12-06T12:37:25.602Z,2.75
2018-12-06T12:42:29.082Z,3.00
2018-12-06T12:47:32.615Z,2.60
2018-12-06T12:52:36.075Z,3.80
2018-12-06T12:57:39.479Z,2.50
2018-12-06T13:02:42.976Z,2.60
2018-12-06T13:07:46.495Z,3.50
2018-12-06T13:12:50.341Z,2.20
2018-12-06T13:17:53.723Z,3.00
2018-12-06T13:22:57.236Z,2.50
2018-12-06T13:28:00.756Z,1.00
2018-12-06T13:33:04.233Z,3.75
2018-12-06T13:38:07.824Z,2.20
2018-12-06T13:43:11.344Z,2.80
2018-12-06T13:48:14.872Z,2.00
2018-12-06T13:53:18.389Z,1.00
2018-12-06T13:58:21.824Z,3.00
2018-12-06T14:03:25.358Z,1.75
2018-12-06T14:08:28.807Z,3.80
2018-12-06T14:13:32.258Z,2.00
2018-12-06T14:18:35.688Z,2.00
2018-12-06T14:23:39.040Z,3.00
2018-12-06T14:28:42.402Z,4.25
2018-12-06T14:33:54.498Z,1.00
2018-12-06T14:38:57.931Z,4.60
2018-12-06T14:44:01.279Z,1.75
2018-12-06T14:49:04.772Z,2.00
2018-12-06T14:54:08.170Z,2.00
2018-12-06T14:59:11.515Z,1.25
2018-12-06T15:04:14.925Z,3.60
2018-12-06T15:09:18.495Z,2.40
2018-12-06T15:14:21.815Z,2.40
2018-12-06T15:19:25.205Z,2.00
2018-12-06T15:24:28.614Z,2.00
2018-12-06T15:29:32.037Z,3.60
2018-12-06T15:34:35.567Z,2.20
2018-12-06T15:39:38.924Z,1.60
2018-12-06T15:44:42.942Z,4.20
2018-12-06T15:49:46.267Z,3.80
2018-12-06T15:55:16.568Z,3.00
2018-12-06T16:00:20.008Z,2.50
2018-12-06T16:05:23.379Z,14.20
2018-12-06T16:10:26.999Z,77.50
2018-12-06T16:15:30.470Z,61.25
2018-12-06T16:20:33.854Z,58.75
2018-12-06T16:25:37.869Z,44.25
2018-12-06T16:30:41.272Z,42.25
2018-12-06T16:35:46.448Z,41.20
2018-12-06T16:40:49.934Z,37.20
2018-12-06T16:45:59.939Z,38.25
2018-12-06T16:51:03.299Z,34.25
2018-12-06T16:56:07.812Z,33.80
2018-12-06T17:01:11.319Z,33.75
2018-12-06T17:06:15.344Z,29.20
2018-12-06T17:11:18.701Z,61.00
2018-12-06T17:16:22.116Z,67.20
2018-12-06T17:21:25.471Z,53.00
2018-12-06T17:26:29.374Z,51.20
2018-12-06T17:31:32.689Z,52.20
2018-12-06T17:36:36.123Z,53.20
2018-12-06T17:41:39.484Z,54.25
2018-12-06T17:46:42.918Z,47.00
2018-12-06T17:51:46.423Z,46.25
2018-12-06T17:56:49.768Z,47.40
2018-12-06T18:01:53.082Z,43.00
2018-12-06T18:06:56.499Z,42.00
2018-12-06T18:11:59.851Z,54.00
2018-12-06T18:17:03.286Z,56.25
2018-12-06T18:22:06.716Z,49.20
2018-12-06T18:27:10.239Z,50.50
2018-12-06T18:32:13.607Z,46.25
2018-12-06T18:37:17.106Z,41.25
2018-12-06T18:42:20.459Z,45.00
2018-12-06T18:47:23.978Z,40.00
2018-12-06T18:52:27.375Z,38.00
2018-12-06T18:57:30.751Z,43.40
2018-12-06T19:02:34.178Z,37.50
2018-12-06T19:07:37.533Z,37.00
2018-12-06T19:12:40.842Z,30.20
2018-12-06T19:17:44.230Z,29.25
2018-12-06T19:22:47.563Z,24.20
2018-12-06T19:27:51.015Z,23.20
2018-12-06T19:32:57.819Z,24.00
2018-12-06T19:37:58.867Z,28.80
2018-12-06T19:43:02.274Z,17.50
2018-12-06T19:48:05.634Z,21.00
2018-12-06T19:53:08.960Z,23.00
2018-12-06T19:58:12.299Z,22.50
2018-12-06T20:03:15.630Z,23.80
2018-12-06T20:08:19.309Z,21.00
2018-12-06T20:13:22.618Z,13.50
2018-12-06T20:18:26.027Z,16.00
2018-12-06T20:23:29.455Z,17.00
2018-12-06T20:28:32.864Z,14.40
2018-12-06T20:33:36.199Z,18.00
2018-12-06T20:38:39.536Z,14.20
2018-12-06T20:43:42.961Z,12.80
2018-12-06T20:48:46.363Z,16.25
2018-12-06T20:53:49.855Z,9.80
2018-12-06T20:58:53.410Z,12.75
2018-12-06T21:03:56.852Z,16.60
2018-12-06T21:09:00.375Z,12.00
2018-12-06T21:14:03.871Z,13.00
2018-12-06T21:19:07.890Z,15.50
2018-12-06T21:24:11.470Z,14.00
2018-12-06T21:29:14.879Z,10.75
2018-12-06T21:34:18.278Z,10.25
2018-12-06T21:39:21.735Z,11.80
2018-12-06T21:44:25.096Z,11.00
2018-12-06T21:49:28.494Z,13.00
2018-12-06T21:54:31.859Z,13.60
2018-12-06T21:59:35.183Z,10.60
2018-12-06T22:04:38.526Z,14.00
2018-12-06T22:09:42.792Z,10.60
2018-12-06T22:14:46.243Z,12.00
2018-12-06T22:19:49.650Z,11.00
2018-12-06T22:24:53.331Z,9.00
2018-12-06T22:29:56.691Z,12.60
2018-12-06T22:35:00.113Z,7.00
2018-12-06T22:40:04.274Z,9.25
2018-12-06T22:46:11.979Z,8.60
2018-12-06T22:51:15.437Z,11.80
2018-12-06T22:56:18.818Z,11.00
2018-12-06T23:01:28.533Z,11.20
2018-12-06T23:06:32.168Z,9.60
2018-12-06T23:11:35.566Z,10.60
2018-12-06T23:16:39.085Z,9.75
2018-12-06T23:21:42.478Z,9.80
2018-12-06T23:26:45.834Z,9.40
2018-12-06T23:31:49.515Z,8.00
2018-12-06T23:36:52.942Z,7.00
2018-12-06T23:41:56.411Z,12.25
2018-12-06T23:47:00.228Z,7.60
2018-12-06T23:52:03.604Z,7.40
2018-12-06T23:57:07.164Z,9.00
